createdAt,value
2019-04-30T00:01:55.760Z,22.88
2019-04-30T00:07:01.401Z,21.75
2019-04-30T00:12:09.955Z,20.38
2019-04-30T00:17:19.767Z,20.62
2019-04-30T00:22:33.992Z,23.60
2019-04-30T00:27:35.613Z,21.94
2019-04-30T00:32:43.793Z,23.92
2019-04-30T00:37:52.032Z,22.00
2019-04-30T00:43:00.207Z,23.26
2019-04-30T00:48:06.570Z,22.47
2019-04-30T00:53:16.658Z,27.55
2019-04-30T00:58:28.967Z,28.30
2019-04-30T01:03:31.174Z,28.80
2019-04-30T01:08:39.615Z,26.24
2019-04-30T01:13:52.535Z,27.12
2019-04-30T01:18:56.134Z,30.16
2019-04-30T01:24:04.755Z,29.07
2019-04-30T01:29:13.194Z,30.44
2019-04-30T01:34:21.698Z,29.97
2019-04-30T01:39:31.689Z,22.66
2019-04-30T01:44:39.187Z,29.68
2019-04-30T01:49:46.301Z,27.67
2019-04-30T01:54:54.762Z,29.34
2019-04-30T02:00:03.265Z,32.70
2019-04-30T02:05:11.711Z,33.82
2019-04-30T02:10:20.290Z,35.03
2019-04-30T02:15:29.173Z,34.52
2019-04-30T02:20:38.367Z,34.02
2019-04-30T02:25:44.760Z,35.18
2019-04-30T02:30:53.273Z,30.59
2019-04-30T02:36:03.686Z,34.69
2019-04-30T02:41:10.000Z,35.68
2019-04-30T02:46:19.260Z,34.37
2019-04-30T02:51:26.307Z,35.16
2019-04-30T02:56:34.863Z,34.76
2019-04-30T03:01:43.348Z,31.80
2019-04-30T03:06:51.850Z,29.95
2019-04-30T03:12:00.478Z,24.88
2019-04-30T03:17:10.237Z,31.38
2019-04-30T03:22:16.766Z,28.34
2019-04-30T03:27:25.259Z,30.22
2019-04-30T03:32:36.976Z,30.96
2019-04-30T03:37:41.754Z,26.57
2019-04-30T03:42:50.310Z,29.57
2019-04-30T03:48:00.310Z,30.74
2019-04-30T03:53:06.885Z,29.44
2019-04-30T03:58:15.390Z,31.06
2019-04-30T04:03:23.853Z,30.37
2019-04-30T04:08:32.341Z,30.18
2019-04-30T04:13:40.844Z,27.86
2019-04-30T04:18:50.163Z,27.81
2019-04-30T04:24:00.124Z,28.83
2019-04-30T04:29:05.418Z,30.17
2019-04-30T04:34:13.921Z,31.45
2019-04-30T04:39:22.470Z,30.99
2019-04-30T04:44:30.915Z,28.98
2019-04-30T04:49:39.856Z,29.70
2019-04-30T04:54:50.253Z,28.00
2019-04-30T04:59:55.396Z,30.02
2019-04-30T05:05:03.890Z,24.75
2019-04-30T05:10:12.427Z,27.81
2019-04-30T05:15:20.941Z,27.87
2019-04-30T05:20:29.684Z,27.88
2019-04-30T05:25:39.023Z,29.73
2019-04-30T05:30:46.153Z,28.19
2019-04-30T05:35:54.606Z,28.80
2019-04-30T05:41:03.085Z,29.10
2019-04-30T05:46:14.054Z,26.95
2019-04-30T05:51:21.331Z,30.91
2019-04-30T05:56:30.177Z,28.37
2019-04-30T06:01:35.705Z,31.13
2019-04-30T06:06:44.436Z,30.25
2019-04-30T06:11:52.970Z,27.63
2019-04-30T06:17:01.407Z,27.04
2019-04-30T06:22:10.994Z,28.70
2019-04-30T06:27:19.132Z,30.56
2019-04-30T06:32:26.489Z,28.83
2019-04-30T06:37:35.081Z,28.68
2019-04-30T06:42:43.559Z,31.24
2019-04-30T06:47:52.071Z,30.00
2019-04-30T06:53:01.637Z,30.45
2019-04-30T06:58:14.798Z,24.64
2019-04-30T07:03:16.822Z,26.31
2019-04-30T07:08:36.357Z,21.25
2019-04-30T07:13:33.349Z,23.30
2019-04-30T07:18:41.847Z,25.73
2019-04-30T07:23:50.325Z,26.12
2019-04-30T07:29:02.177Z,22.84
2019-04-30T07:34:09.150Z,24.68
2019-04-30T07:39:14.889Z,25.42
2019-04-30T07:44:33.314Z,25.86
2019-04-30T07:49:46.979Z,25.78
2019-04-30T07:54:39.706Z,25.94
2019-04-30T07:59:49.842Z,24.42
2019-04-30T08:04:56.201Z,27.42
2019-04-30T08:10:04.722Z,25.86
2019-04-30T08:15:13.290Z,26.62
2019-04-30T08:20:21.834Z,24.13
2019-04-30T08:25:30.358Z,24.21
2019-04-30T08:30:39.215Z,25.84
2019-04-30T08:35:47.390Z,24.42
2019-04-30T08:40:58.067Z,23.73
2019-04-30T08:46:03.838Z,21.47
2019-04-30T08:51:13.838Z,22.24
2019-04-30T08:56:21.961Z,23.97
2019-04-30T09:01:29.459Z,23.03
2019-04-30T09:06:38.679Z,23.72
2019-04-30T09:11:52.981Z,23.48
2019-04-30T09:16:52.588Z,23.04
2019-04-30T09:22:01.030Z,20.50
2019-04-30T09:27:10.776Z,26.30
2019-04-30T09:32:19.305Z,24.33
2019-04-30T09:37:25.571Z,22.11
2019-04-30T09:42:34.066Z,22.20
2019-04-30T09:47:42.563Z,24.00
2019-04-30T09:52:51.304Z,20.27
2019-04-30T09:57:59.556Z,22.50
2019-04-30T10:03:10.509Z,21.95
2019-04-30T10:08:16.147Z,18.84
2019-04-30T10:13:24.734Z,20.79
2019-04-30T10:18:33.368Z,22.15
2019-04-30T10:23:41.853Z,18.94
2019-04-30T10:28:50.376Z,22.56
2019-04-30T10:33:58.939Z,22.44
2019-04-30T10:39:07.491Z,19.56
2019-04-30T10:44:16.074Z,20.02
2019-04-30T10:49:24.701Z,17.00
2019-04-30T10:54:33.252Z,19.30
2019-04-30T10:59:41.796Z,17.70
2019-04-30T11:04:50.358Z,18.44
2019-04-30T11:09:58.974Z,21.04
2019-04-30T11:15:07.399Z,20.54
2019-04-30T11:20:16.108Z,14.57
2019-04-30T11:25:25.047Z,18.61
2019-04-30T11:30:32.715Z,15.90
2019-04-30T11:35:41.069Z,15.57
2019-04-30T11:40:50.455Z,16.07
2019-04-30T11:46:00.279Z,20.71
2019-04-30T11:51:09.323Z,22.36
2019-04-30T11:56:21.126Z,19.86
2019-04-30T12:01:20.096Z,20.17
2019-04-30T12:06:28.670Z,16.05
2019-04-30T12:19:00.709Z,9.96
